createdAt,value
2018-06-27T00:00:23.297Z,2.10
2018-06-27T00:02:50.932Z,2.00
2018-06-27T00:05:18.576Z,2.63
2018-06-27T00:07:46.268Z,2.27
2018-06-27T00:10:13.883Z,2.23
2018-06-27T00:12:41.601Z,2.30
2018-06-27T00:15:10.885Z,1.83
2018-06-27T00:17:38.644Z,2.30
2018-06-27T00:20:06.683Z,2.47
2018-06-27T00:22:34.310Z,2.20
2018-06-27T00:25:01.987Z,2.50
2018-06-27T00:27:29.611Z,2.40
2018-06-27T00:29:57.321Z,2.30
2018-06-27T00:32:25.042Z,2.60
2018-06-27T00:34:52.607Z,2.77
2018-06-27T00:37:20.250Z,2.63
2018-06-27T00:39:47.810Z,2.83
2018-06-27T00:42:15.507Z,2.67
2018-06-27T00:44:43.084Z,2.60
2018-06-27T00:47:10.702Z,2.50
2018-06-27T00:49:38.491Z,2.70
2018-06-27T00:52:06.143Z,2.83
2018-06-27T00:54:33.920Z,3.10
2018-06-27T00:57:01.552Z,2.43
2018-06-27T00:59:29.138Z,2.73
2018-06-27T01:01:56.847Z,3.00
2018-06-27T01:04:24.402Z,2.70
2018-06-27T01:06:52.201Z,2.90
2018-06-27T01:09:19.821Z,2.87
2018-06-27T01:11:47.373Z,2.73
2018-06-27T01:14:15.086Z,2.60
2018-06-27T01:16:42.742Z,2.70
2018-06-27T01:19:10.391Z,3.00
2018-06-27T01:21:38.088Z,2.50
2018-06-27T01:24:05.915Z,2.87
2018-06-27T01:26:33.923Z,2.90
2018-06-27T01:29:01.669Z,2.97
2018-06-27T01:31:29.431Z,2.87
2018-06-27T01:33:57.182Z,2.60
2018-06-27T01:36:24.901Z,3.77
2018-06-27T01:38:52.605Z,3.00
2018-06-27T01:41:20.292Z,3.23
2018-06-27T01:43:48.043Z,3.80
2018-06-27T01:46:15.694Z,3.87
2018-06-27T01:48:43.415Z,4.27
2018-06-27T01:51:11.033Z,3.97
2018-06-27T01:53:38.708Z,4.00
2018-06-27T01:56:08.011Z,3.93
2018-06-27T01:58:35.672Z,4.83
2018-06-27T02:01:03.395Z,5.20
2018-06-27T02:03:31.125Z,4.80
2018-06-27T02:05:58.879Z,4.43
2018-06-27T02:08:26.756Z,5.00
2018-06-27T02:10:54.490Z,4.47
2018-06-27T02:13:22.127Z,4.73
2018-06-27T02:15:50.130Z,4.30
2018-06-27T02:18:17.838Z,5.00
2018-06-27T02:20:45.578Z,4.73
2018-06-27T02:23:13.349Z,4.30
2018-06-27T02:25:41.172Z,4.40
2018-06-27T02:28:09.650Z,4.43
2018-06-27T02:30:37.464Z,4.60
2018-06-27T02:33:05.226Z,4.70
2018-06-27T02:35:32.889Z,5.27
2018-06-27T02:38:00.529Z,4.70
2018-06-27T02:40:28.279Z,4.30
2018-06-27T02:42:56.062Z,4.63
2018-06-27T02:45:23.913Z,4.60
2018-06-27T02:47:51.569Z,4.73
2018-06-27T02:50:19.379Z,4.90
2018-06-27T02:52:47.164Z,4.97
2018-06-27T02:55:14.870Z,4.97
2018-06-27T02:57:42.641Z,4.30
2018-06-27T03:00:12.747Z,4.33
2018-06-27T03:02:40.945Z,4.50
2018-06-27T03:05:08.832Z,4.57
2018-06-27T03:07:36.594Z,4.17
2018-06-27T03:10:04.895Z,4.77
2018-06-27T03:12:32.537Z,4.50
2018-06-27T03:15:00.359Z,4.60
2018-06-27T03:17:28.094Z,4.53
2018-06-27T03:19:55.928Z,4.30
2018-06-27T03:22:23.802Z,4.60
2018-06-27T03:24:51.394Z,4.90
2018-06-27T03:27:19.033Z,4.90
2018-06-27T03:29:46.848Z,4.90
2018-06-27T03:32:14.497Z,5.03
2018-06-27T03:34:42.203Z,4.93
2018-06-27T03:37:09.868Z,4.33
2018-06-27T03:39:37.553Z,5.33
2018-06-27T03:42:05.338Z,4.57
2018-06-27T03:44:32.971Z,5.10
2018-06-27T03:47:00.665Z,5.10
2018-06-27T03:49:28.508Z,5.00
2018-06-27T03:51:56.248Z,5.20
2018-06-27T03:54:23.813Z,4.90
2018-06-27T03:56:51.485Z,5.10
2018-06-27T03:59:19.229Z,5.37
2018-06-27T04:01:46.950Z,5.30
2018-06-27T04:04:14.927Z,4.67
2018-06-27T04:06:42.614Z,5.00
2018-06-27T04:09:11.673Z,5.40
2018-06-27T04:11:40.187Z,4.73
2018-06-27T04:14:07.938Z,4.93
2018-06-27T04:16:35.806Z,4.83
2018-06-27T04:19:03.448Z,5.70
2018-06-27T04:21:31.023Z,5.70
2018-06-27T04:23:59.142Z,6.00
2018-06-27T04:26:26.868Z,5.27
2018-06-27T04:28:54.800Z,5.23
2018-06-27T04:31:22.457Z,5.13
2018-06-27T04:33:50.335Z,5.53
2018-06-27T04:36:18.034Z,5.47
2018-06-27T04:38:45.735Z,5.47
2018-06-27T04:41:13.537Z,6.70
2018-06-27T04:43:41.320Z,7.93
2018-06-27T04:46:09.084Z,20.97
2018-06-27T04:48:36.722Z,16.17
2018-06-27T04:51:04.454Z,18.90
2018-06-27T04:53:32.227Z,15.77
2018-06-27T04:55:59.932Z,13.30
2018-06-27T04:58:28.165Z,11.13
2018-06-27T05:00:55.852Z,10.47
2018-06-27T05:03:23.569Z,11.30
2018-06-27T05:05:51.313Z,9.00
2018-06-27T05:08:19.026Z,7.50
2018-06-27T05:10:46.601Z,7.30
2018-06-27T05:13:14.359Z,7.70
2018-06-27T05:15:42.205Z,7.40
2018-06-27T05:18:09.833Z,7.30
2018-06-27T05:20:37.589Z,6.03
2018-06-27T05:23:05.250Z,6.80
2018-06-27T05:25:33.082Z,6.57
2018-06-27T05:28:00.738Z,5.57
2018-06-27T05:30:28.406Z,5.20
2018-06-27T05:32:56.183Z,4.97
2018-06-27T05:35:24.106Z,4.83
2018-06-27T05:37:51.761Z,3.93
2018-06-27T05:40:19.696Z,4.73
2018-06-27T05:42:47.443Z,4.47
2018-06-27T05:45:15.149Z,6.03
2018-06-27T05:47:42.776Z,5.27
2018-06-27T05:50:10.491Z,4.30
2018-06-27T05:52:38.057Z,4.40
2018-06-27T05:55:06.712Z,4.63
2018-06-27T05:57:36.018Z,4.60
2018-06-27T06:00:04.500Z,5.10
2018-06-27T06:02:32.329Z,4.63
2018-06-27T06:05:00.068Z,4.10
2018-06-27T06:07:27.936Z,3.97
2018-06-27T06:09:55.689Z,4.67
2018-06-27T06:12:23.396Z,4.77
2018-06-27T06:14:51.602Z,4.63
2018-06-27T06:17:19.287Z,5.93
2018-06-27T06:19:46.933Z,4.77
2018-06-27T06:22:14.756Z,5.37
2018-06-27T06:24:44.526Z,4.90
2018-06-27T06:27:13.362Z,4.93
2018-06-27T06:29:41.726Z,4.43
2018-06-27T06:32:09.464Z,4.80
2018-06-27T06:34:37.641Z,4.67
2018-06-27T06:37:05.577Z,5.03
2018-06-27T06:39:33.716Z,4.30
2018-06-27T06:42:02.794Z,3.83
2018-06-27T06:44:31.179Z,4.13
2018-06-27T06:46:59.170Z,4.90
2018-06-27T06:49:27.012Z,4.63
2018-06-27T06:51:55.147Z,5.30
2018-06-27T06:54:23.655Z,5.10
2018-06-27T06:56:51.659Z,4.40
2018-06-27T06:59:20.039Z,3.30
2018-06-27T07:01:48.262Z,3.80
2018-06-27T07:04:16.044Z,3.20
2018-06-27T07:06:44.045Z,3.37
2018-06-27T07:09:13.657Z,3.10
2018-06-27T07:11:41.730Z,3.10
2018-06-27T07:14:10.005Z,2.80
2018-06-27T07:16:38.374Z,2.90
2018-06-27T07:19:06.356Z,3.07
2018-06-27T07:21:36.408Z,2.97
2018-06-27T07:24:05.160Z,3.23
2018-06-27T07:26:33.199Z,2.33
2018-06-27T07:29:01.003Z,2.20
2018-06-27T07:31:28.937Z,2.03
2018-06-27T07:33:56.998Z,2.67
2018-06-27T07:36:24.957Z,2.10
2018-06-27T07:38:52.703Z,3.20
2018-06-27T07:41:20.859Z,2.30
2018-06-27T07:43:48.563Z,3.10
2018-06-27T07:46:16.389Z,2.83
2018-06-27T07:48:44.303Z,2.70
2018-06-27T07:51:12.181Z,2.30
2018-06-27T07:53:39.794Z,2.30
2018-06-27T07:56:07.597Z,2.20
2018-06-27T07:58:35.362Z,1.97
2018-06-27T08:01:03.173Z,1.83
2018-06-27T08:03:30.936Z,2.20
2018-06-27T08:05:58.682Z,2.10
2018-06-27T08:08:26.421Z,2.30
2018-06-27T08:10:54.081Z,2.33
2018-06-27T08:13:21.736Z,2.30
2018-06-27T08:15:49.797Z,2.13
2018-06-27T08:18:17.729Z,2.27
2018-06-27T08:20:45.435Z,2.20
2018-06-27T08:23:13.158Z,2.17
2018-06-27T08:25:46.420Z,1.57
2018-06-27T08:28:14.425Z,1.67
2018-06-27T08:30:42.173Z,1.47
2018-06-27T08:33:10.006Z,1.57
2018-06-27T08:35:37.791Z,1.90
2018-06-27T08:38:05.662Z,1.73
2018-06-27T08:40:33.417Z,1.43
2018-06-27T08:43:01.192Z,1.47
2018-06-27T08:45:29.179Z,1.37
2018-06-27T08:47:56.942Z,1.23
2018-06-27T08:50:24.934Z,1.40
2018-06-27T08:52:53.077Z,1.60
2018-06-27T08:55:21.041Z,1.57
2018-06-27T08:57:48.805Z,1.80
2018-06-27T09:00:16.633Z,1.77
2018-06-27T09:02:44.396Z,1.73
2018-06-27T09:05:12.037Z,1.43
2018-06-27T09:07:39.816Z,1.70
2018-06-27T09:10:07.661Z,1.87
2018-06-27T09:12:35.329Z,1.60
2018-06-27T09:15:03.270Z,1.77
2018-06-27T09:17:30.914Z,1.67
2018-06-27T09:19:58.687Z,3.77
2018-06-27T09:22:26.393Z,1.80
2018-06-27T09:24:54.021Z,2.00
2018-06-27T09:27:21.744Z,1.73
2018-06-27T09:29:49.399Z,2.07
2018-06-27T09:32:17.141Z,1.90
2018-06-27T09:34:44.884Z,1.87
2018-06-27T09:37:12.642Z,2.10
2018-06-27T09:39:40.348Z,2.40
2018-06-27T09:42:08.107Z,2.33
2018-06-27T09:44:36.050Z,2.80
2018-06-27T09:47:03.927Z,3.13
2018-06-27T09:49:31.783Z,2.70
2018-06-27T09:51:59.584Z,3.33
2018-06-27T09:54:27.349Z,3.20
2018-06-27T09:56:55.122Z,3.30
2018-06-27T09:59:22.960Z,3.00
2018-06-27T10:01:50.721Z,3.37
2018-06-27T10:04:18.857Z,3.53
2018-06-27T10:06:46.720Z,3.80
2018-06-27T10:09:14.463Z,3.33
2018-06-27T10:11:42.129Z,3.40
2018-06-27T10:14:09.771Z,3.13
2018-06-27T10:16:39.514Z,3.07
2018-06-27T10:19:07.433Z,3.93
2018-06-27T10:21:37.206Z,3.40
2018-06-27T10:24:05.309Z,4.30
2018-06-27T10:26:33.413Z,3.83
2018-06-27T10:29:01.182Z,3.90
2018-06-27T10:31:28.927Z,4.30
2018-06-27T10:33:56.664Z,4.13
2018-06-27T10:36:24.478Z,3.93
2018-06-27T10:38:52.236Z,3.73
2018-06-27T10:41:19.981Z,4.40
2018-06-27T10:43:47.707Z,3.63
2018-06-27T10:46:15.419Z,3.77
2018-06-27T10:48:43.113Z,3.67
2018-06-27T10:51:10.782Z,4.07
2018-06-27T10:53:38.424Z,3.60
2018-06-27T10:56:06.267Z,3.57
2018-06-27T10:58:33.965Z,3.30
2018-06-27T11:01:01.726Z,2.87
2018-06-27T11:03:29.481Z,3.20
2018-06-27T11:05:57.179Z,2.80
2018-06-27T11:08:24.936Z,3.20
2018-06-27T11:10:52.831Z,2.70
2018-06-27T11:13:20.955Z,2.57
2018-06-27T11:15:50.014Z,3.10
2018-06-27T11:18:17.774Z,2.50
2018-06-27T11:20:45.804Z,2.90
2018-06-27T11:23:13.797Z,2.90
2018-06-27T11:25:41.688Z,3.17
2018-06-27T11:28:09.456Z,2.80
2018-06-27T11:30:37.074Z,3.50
2018-06-27T11:33:04.915Z,3.60
2018-06-27T11:35:32.582Z,4.20
2018-06-27T11:38:00.178Z,3.60
2018-06-27T11:40:28.143Z,3.70
2018-06-27T11:42:55.811Z,3.50
2018-06-27T11:45:23.604Z,3.20
2018-06-27T11:47:51.439Z,3.07
2018-06-27T11:50:19.265Z,3.20
2018-06-27T11:52:46.860Z,2.70
2018-06-27T11:55:14.494Z,2.97
2018-06-27T11:57:43.810Z,3.20
2018-06-27T12:00:11.557Z,2.83
2018-06-27T12:02:39.688Z,2.60
2018-06-27T12:05:08.361Z,2.77
2018-06-27T12:07:36.088Z,2.70
2018-06-27T12:10:04.262Z,2.70
2018-06-27T12:12:31.886Z,2.30
2018-06-27T12:14:59.578Z,2.70
2018-06-27T12:17:27.739Z,2.30
2018-06-27T12:19:55.702Z,2.47
2018-06-27T12:22:23.364Z,2.67
2018-06-27T12:24:50.945Z,2.30
2018-06-27T12:27:19.046Z,2.20
2018-06-27T12:29:46.915Z,2.40
2018-06-27T12:32:14.739Z,2.10
2018-06-27T12:34:42.293Z,2.03
2018-06-27T12:37:09.924Z,2.00
2018-06-27T12:39:37.921Z,2.53
2018-06-27T12:42:05.440Z,2.10
2018-06-27T12:44:33.120Z,2.30
2018-06-27T12:47:01.009Z,2.20
2018-06-27T12:49:28.867Z,1.90
2018-06-27T12:51:56.514Z,2.10
2018-06-27T12:54:24.623Z,2.10
2018-06-27T12:56:52.181Z,1.97
2018-06-27T12:59:19.746Z,2.10
2018-06-27T13:01:47.585Z,1.87
2018-06-27T13:04:15.320Z,1.83
2018-06-27T13:06:43.078Z,1.63
2018-06-27T13:09:11.233Z,1.77
2018-06-27T13:11:39.983Z,1.30
2018-06-27T13:14:08.047Z,1.60
2018-06-27T13:16:37.787Z,2.13
2018-06-27T13:19:06.116Z,2.20
2018-06-27T13:21:34.555Z,1.83
2018-06-27T13:24:02.534Z,1.93
2018-06-27T13:26:30.208Z,2.20
2018-06-27T13:28:58.263Z,2.20
2018-06-27T13:31:25.931Z,1.93
2018-06-27T13:33:53.929Z,1.90
2018-06-27T13:36:21.838Z,2.03
2018-06-27T13:38:49.478Z,2.13
2018-06-27T13:41:18.546Z,1.90
2018-06-27T13:43:46.263Z,1.80
2018-06-27T13:46:14.022Z,1.50
2018-06-27T13:48:41.754Z,1.70
2018-06-27T13:51:09.530Z,1.70
2018-06-27T13:53:37.094Z,1.60
2018-06-27T13:56:05.054Z,1.73
2018-06-27T13:58:32.596Z,2.17
2018-06-27T14:01:01.070Z,1.60
2018-06-27T14:03:28.770Z,1.70
2018-06-27T14:05:56.770Z,1.90
2018-06-27T14:08:24.452Z,2.20
2018-06-27T14:10:52.309Z,1.50
2018-06-27T14:13:21.052Z,1.83
2018-06-27T14:15:48.916Z,1.60
2018-06-27T14:18:16.579Z,1.67
2018-06-27T14:20:44.280Z,1.40
2018-06-27T14:23:12.034Z,1.40
2018-06-27T14:25:39.742Z,1.30
2018-06-27T14:28:07.822Z,1.40
2018-06-27T14:30:35.451Z,1.70
2018-06-27T14:35:58.143Z,1.20
2018-06-27T14:38:27.189Z,1.27
2018-06-27T14:40:55.208Z,1.20
2018-06-27T14:43:23.009Z,1.10
2018-06-27T14:45:50.613Z,1.13
2018-06-27T14:51:17.575Z,1.17
2018-06-27T14:53:45.359Z,1.00
2018-06-27T14:56:13.181Z,1.40
2018-06-27T14:58:40.797Z,1.30
2018-06-27T15:01:09.409Z,1.53
2018-06-27T15:03:37.365Z,1.30
2018-06-27T15:06:05.190Z,1.50
2018-06-27T15:08:32.894Z,1.67
2018-06-27T15:11:01.245Z,1.27
2018-06-27T15:13:28.820Z,1.67
2018-06-27T15:15:56.699Z,1.63
2018-06-27T15:18:24.801Z,1.47
2018-06-27T15:20:52.661Z,1.70
2018-06-27T15:23:20.364Z,1.57
2018-06-27T15:25:48.297Z,1.40
2018-06-27T15:28:16.014Z,1.77
2018-06-27T15:30:43.773Z,1.37
2018-06-27T15:33:11.429Z,0.93
2018-06-27T15:35:39.135Z,1.43
2018-06-27T15:38:06.817Z,1.30
2018-06-27T15:40:34.490Z,1.20
2018-06-27T15:43:02.267Z,1.63
2018-06-27T15:45:29.965Z,1.40
2018-06-27T15:47:57.595Z,1.20
2018-06-27T15:50:25.173Z,1.20
2018-06-27T15:52:52.990Z,1.33
2018-06-27T15:55:20.637Z,1.40
2018-06-27T15:57:48.455Z,1.43
2018-06-27T16:00:16.145Z,1.40
2018-06-27T16:02:43.905Z,1.20
2018-06-27T16:05:11.575Z,1.40
2018-06-27T16:07:39.141Z,1.17
2018-06-27T16:10:06.822Z,1.30
2018-06-27T16:12:34.637Z,1.20
2018-06-27T16:15:02.330Z,1.20
2018-06-27T16:17:30.021Z,1.30
2018-06-27T16:19:57.707Z,1.20
2018-06-27T16:22:25.256Z,1.30
2018-06-27T16:24:52.934Z,1.13
2018-06-27T16:27:20.711Z,1.20
2018-06-27T16:29:48.385Z,1.10
2018-06-27T16:32:16.131Z,1.20
2018-06-27T16:34:43.924Z,1.20
2018-06-27T16:37:11.681Z,1.43
2018-06-27T16:39:39.315Z,1.20
2018-06-27T16:42:07.161Z,1.53
2018-06-27T16:44:34.853Z,1.13
2018-06-27T16:47:02.736Z,1.67
2018-06-27T16:49:30.443Z,1.27
2018-06-27T16:51:58.456Z,1.20
2018-06-27T16:54:26.255Z,1.27
2018-06-27T16:56:54.060Z,1.30
2018-06-27T16:59:21.765Z,1.70
2018-06-27T17:01:49.618Z,1.50
2018-06-27T17:04:17.746Z,1.40
2018-06-27T17:06:45.668Z,1.10
2018-06-27T17:09:13.442Z,1.27
2018-06-27T17:11:41.358Z,1.27
2018-06-27T17:14:09.540Z,1.40
2018-06-27T17:16:37.623Z,1.80
2018-06-27T17:19:05.460Z,1.40
2018-06-27T17:21:33.176Z,1.93
2018-06-27T17:24:01.042Z,1.57
2018-06-27T17:26:28.850Z,1.50
2018-06-27T17:28:56.456Z,1.57
2018-06-27T17:31:24.384Z,1.53
2018-06-27T17:33:52.123Z,1.43
2018-06-27T17:36:19.774Z,3.43
2018-06-27T17:38:48.338Z,1.53
2018-06-27T17:41:16.213Z,1.20
2018-06-27T17:43:43.903Z,2.30
2018-06-27T17:46:12.286Z,2.40
2018-06-27T17:48:39.925Z,1.33
2018-06-27T17:51:07.873Z,1.70
2018-06-27T17:53:35.583Z,1.50
2018-06-27T17:56:03.498Z,1.50
2018-06-27T17:58:31.133Z,1.60
2018-06-27T18:00:59.636Z,1.53
2018-06-27T18:03:27.298Z,1.37
2018-06-27T18:05:55.023Z,1.60
2018-06-27T18:08:22.641Z,1.63
2018-06-27T18:10:50.609Z,2.10
2018-06-27T18:13:18.414Z,1.57
2018-06-27T18:15:46.789Z,1.43
2018-06-27T18:18:14.451Z,1.77
2018-06-27T18:20:42.382Z,1.50
2018-06-27T18:23:11.298Z,1.70
2018-06-27T18:25:39.017Z,1.70
2018-06-27T18:28:06.903Z,1.77
2018-06-27T18:30:34.697Z,2.00
2018-06-27T18:33:02.453Z,2.03
2018-06-27T18:35:31.042Z,2.40
2018-06-27T18:37:58.771Z,2.17
2018-06-27T18:40:26.510Z,2.10
2018-06-27T18:42:54.313Z,2.10
2018-06-27T18:45:22.108Z,2.20
2018-06-27T18:47:49.735Z,1.90
2018-06-27T18:50:17.549Z,2.13
2018-06-27T18:52:45.204Z,2.70
2018-06-27T18:55:12.827Z,1.90
2018-06-27T18:57:40.510Z,1.73
2018-06-27T19:00:09.714Z,1.70
2018-06-27T19:02:37.387Z,1.63
2018-06-27T19:05:05.384Z,1.40
2018-06-27T19:07:33.130Z,2.10
2018-06-27T19:10:00.799Z,1.50
2018-06-27T19:12:28.474Z,1.73
2018-06-27T19:14:56.488Z,1.47
2018-06-27T19:17:25.537Z,1.43
2018-06-27T19:19:53.456Z,1.70
2018-06-27T19:22:21.079Z,1.70
2018-06-27T19:24:48.716Z,1.90
2018-06-27T19:27:16.458Z,1.67
2018-06-27T19:29:44.266Z,1.40
2018-06-27T19:32:11.996Z,1.97
2018-06-27T19:34:39.601Z,1.57
2018-06-27T19:37:07.467Z,1.77
2018-06-27T19:39:38.239Z,1.87
2018-06-27T19:42:02.716Z,1.77
2018-06-27T19:44:30.558Z,1.80
2018-06-27T19:46:58.404Z,2.27
2018-06-27T19:49:25.945Z,2.00
2018-06-27T19:51:53.671Z,1.80
2018-06-27T19:54:21.391Z,2.00
2018-06-27T19:56:49.030Z,2.10
2018-06-27T19:59:17.626Z,1.67
2018-06-27T20:01:45.482Z,2.00
2018-06-27T20:04:13.140Z,2.00
2018-06-27T20:06:41.057Z,2.00
2018-06-27T20:09:09.512Z,2.17
2018-06-27T20:11:37.286Z,2.10
2018-06-27T20:14:05.161Z,1.87
2018-06-27T20:16:32.900Z,2.10
2018-06-27T20:19:00.464Z,2.17
2018-06-27T20:21:28.270Z,1.80
2018-06-27T20:23:56.099Z,1.97
2018-06-27T20:26:24.944Z,1.97
2018-06-27T20:28:52.712Z,2.23
2018-06-27T20:31:20.430Z,2.43
2018-06-27T20:33:48.068Z,2.20
2018-06-27T20:36:15.739Z,2.47
2018-06-27T20:38:43.546Z,1.97
2018-06-27T20:41:11.577Z,2.10
2018-06-27T20:43:39.629Z,2.27
2018-06-27T20:46:07.421Z,2.47
2018-06-27T20:48:35.471Z,2.30
2018-06-27T20:51:03.427Z,2.70
2018-06-27T20:53:31.638Z,2.37
2018-06-27T20:55:59.710Z,2.50
2018-06-27T20:58:27.646Z,2.60
2018-06-27T21:00:55.633Z,2.60
2018-06-27T21:03:23.683Z,2.70
2018-06-27T21:05:51.491Z,2.73
2018-06-27T21:08:19.261Z,3.07
2018-06-27T21:10:47.395Z,2.70
2018-06-27T21:13:15.078Z,2.77
2018-06-27T21:15:42.775Z,2.70
2018-06-27T21:18:10.683Z,2.97
2018-06-27T21:20:38.500Z,3.23
2018-06-27T21:23:06.766Z,2.90
2018-06-27T21:25:35.000Z,2.93
2018-06-27T21:28:02.700Z,2.93
2018-06-27T21:30:30.627Z,3.37
2018-06-27T21:32:58.582Z,3.03
2018-06-27T21:35:26.367Z,2.40
2018-06-27T21:37:54.056Z,2.90
2018-06-27T21:40:21.787Z,3.10
2018-06-27T21:42:49.695Z,3.40
2018-06-27T21:45:17.478Z,2.97
2018-06-27T21:47:45.209Z,2.80
2018-06-27T21:50:12.973Z,3.10
2018-06-27T21:52:40.785Z,2.90
2018-06-27T21:55:08.628Z,3.07
2018-06-27T21:57:36.662Z,3.20
2018-06-27T22:00:05.482Z,2.80
2018-06-27T22:02:33.236Z,2.97
2018-06-27T22:05:01.101Z,2.63
2018-06-27T22:07:29.043Z,3.40
2018-06-27T22:09:56.677Z,2.97
2018-06-27T22:12:24.471Z,2.83
2018-06-27T22:14:52.109Z,3.00
2018-06-27T22:17:19.931Z,3.17
2018-06-27T22:19:47.701Z,2.67
2018-06-27T22:22:15.697Z,2.63
2018-06-27T22:24:44.008Z,3.00
2018-06-27T22:27:11.718Z,3.07
2018-06-27T22:29:39.843Z,2.83
2018-06-27T22:32:07.509Z,3.07
2018-06-27T22:34:35.821Z,2.80
2018-06-27T22:37:03.566Z,3.23
2018-06-27T22:39:31.338Z,3.33
2018-06-27T22:41:59.153Z,3.10
2018-06-27T22:44:26.927Z,3.60
2018-06-27T22:46:54.682Z,3.80
2018-06-27T22:49:22.368Z,3.53
2018-06-27T22:51:50.072Z,3.00
2018-06-27T22:54:18.172Z,3.50
2018-06-27T22:56:45.955Z,3.47
2018-06-27T22:59:13.908Z,3.87
2018-06-27T23:01:41.660Z,3.20
2018-06-27T23:04:09.530Z,4.67
2018-06-27T23:06:37.677Z,3.60
2018-06-27T23:09:07.418Z,3.40
2018-06-27T23:11:35.611Z,3.40
2018-06-27T23:14:03.277Z,2.90
2018-06-27T23:16:30.961Z,3.10
2018-06-27T23:18:58.670Z,2.90
2018-06-27T23:21:26.425Z,3.20
2018-06-27T23:23:54.145Z,2.90
2018-06-27T23:26:21.890Z,3.47
2018-06-27T23:28:49.606Z,2.93
2018-06-27T23:31:17.289Z,3.00
2018-06-27T23:33:45.119Z,3.10
2018-06-27T23:36:12.858Z,3.00
2018-06-27T23:38:40.697Z,2.90
2018-06-27T23:41:08.319Z,3.30
2018-06-27T23:43:36.092Z,3.63
2018-06-27T23:46:03.949Z,3.40
2018-06-27T23:48:32.538Z,3.33
2018-06-27T23:51:00.233Z,4.03
2018-06-27T23:53:27.954Z,3.30
2018-06-27T23:55:55.835Z,3.20
2018-06-27T23:58:23.888Z,3.73
